Terminal Aerodrome Forecast
Issued by NWS

Home | Current Version | Previous Version | Text Only | Print | Product List | Glossary On
Versions: 1 2 3 4 5 6 7 8 9 10 11 12 13 14 15 16 17 18 19 20 21 22 23 24 25 26 27 28 29 30 31 32 33 34 35 36 37 38 39 40 41 42 43 44 45 46
000
FTUS45 KGJT 281754
TAFASE
TAF
KASE 281754Z 2818/2918 32004KT 6SM -SN BR SCT030 BKN040
     FM281900 32004KT P6SM VCSH SCT030 OVC050
     FM290000 33004KT 5SM -SN BR SCT015 OVC030
     FM290700 23003KT 3SM -SN BR SCT010 OVC020=

USA.gov is the U.S. government's official web portal to all federal, state and local government web resources and services.